createdAt,value
2023-12-17T00:00:35.093Z,103364.53
2023-12-17T00:03:17.520Z,103359.22
2023-12-17T00:05:46.710Z,103346.25
2023-12-17T00:08:13.146Z,103341.09
2023-12-17T00:10:39.511Z,103338.38
2023-12-17T00:13:06.458Z,103339.53
2023-12-17T00:15:32.863Z,103334.09
2023-12-17T00:17:59.363Z,103331.41
2023-12-17T00:20:25.848Z,103332.16
2023-12-17T00:22:52.196Z,103326.97
2023-12-17T00:25:18.565Z,103334.78
2023-12-17T00:27:44.973Z,103345.16
2023-12-17T00:30:11.633Z,103352.91
2023-12-17T00:32:38.134Z,103338.97
2023-12-17T00:35:05.081Z,103337.47
2023-12-17T00:37:31.425Z,103331.28
2023-12-17T00:39:57.834Z,103328.56
2023-12-17T00:42:24.221Z,103330.31
2023-12-17T00:44:50.731Z,103324.25
2023-12-17T00:47:17.172Z,103320.84
2023-12-17T00:49:43.555Z,103321.63
2023-12-17T00:52:09.949Z,103330.38
2023-12-17T00:54:36.371Z,103341.72
2023-12-17T00:57:03.441Z,103345.22
2023-12-17T00:59:29.866Z,103345.16
2023-12-17T01:01:56.262Z,103337.38
2023-12-17T01:04:22.638Z,103354.78
2023-12-17T01:06:50.774Z,103354.78
2023-12-17T01:09:18.840Z,103356.53
2023-12-17T01:11:45.277Z,103347.25
2023-12-17T01:14:11.756Z,103351.44
2023-12-17T01:16:38.156Z,103356.63
2023-12-17T01:19:04.624Z,103359.34
2023-12-17T01:21:31.154Z,103360.22
2023-12-17T01:23:59.901Z,103365.44
2023-12-17T01:26:27.721Z,103361.84
2023-12-17T01:28:54.304Z,103357.41
2023-12-17T01:31:20.711Z,103366.16
2023-12-17T01:33:47.298Z,103361.84
2023-12-17T01:36:14.083Z,103359.44
2023-12-17T01:38:40.535Z,103362.66
2023-12-17T01:41:09.898Z,103362.63
2023-12-17T01:43:36.385Z,103355.75
2023-12-17T01:46:05.175Z,103357.50
2023-12-17T01:48:32.325Z,103360.91
2023-12-17T01:50:59.105Z,103352.47
2023-12-17T01:53:26.673Z,103354.72
2023-12-17T01:55:53.697Z,103352.03
2023-12-17T01:58:22.877Z,103344.50
2023-12-17T02:00:52.512Z,103349.50
2023-12-17T02:03:19.070Z,103341.88
2023-12-17T02:05:47.162Z,103353.03
2023-12-17T02:08:13.672Z,103348.59
2023-12-17T02:10:40.248Z,103346.75
2023-12-17T02:13:10.776Z,103329.31
2023-12-17T02:15:40.005Z,103331.06
2023-12-17T02:18:06.789Z,103329.28
2023-12-17T02:20:35.541Z,103329.31
2023-12-17T02:23:05.762Z,103329.94
2023-12-17T02:25:32.957Z,103330.19
2023-12-17T02:27:59.988Z,103324.69
2023-12-17T02:30:26.642Z,103324.66
2023-12-17T02:32:53.210Z,103321.13
2023-12-17T02:35:19.694Z,103320.31
2023-12-17T02:37:46.035Z,103316.41
2023-12-17T02:40:12.575Z,103319.53
2023-12-17T02:42:38.962Z,103326.38
2023-12-17T02:45:05.975Z,103332.50
2023-12-17T02:47:32.698Z,103324.50
2023-12-17T02:49:59.222Z,103320.28
2023-12-17T02:52:27.195Z,103325.53
2023-12-17T02:54:53.530Z,103324.53
2023-12-17T02:57:21.768Z,103316.56
2023-12-17T02:59:48.152Z,103319.16
2023-12-17T03:02:15.074Z,103318.31
2023-12-17T03:04:41.643Z,103317.38
2023-12-17T03:07:08.027Z,103327.06
2023-12-17T03:09:34.448Z,103322.66
2023-12-17T03:12:00.877Z,103318.31
2023-12-17T03:14:27.289Z,103316.50
2023-12-17T03:16:53.737Z,103312.88
2023-12-17T03:19:20.162Z,103311.16
2023-12-17T03:21:46.840Z,103302.44
2023-12-17T03:24:13.476Z,103311.34
2023-12-17T03:26:39.847Z,103311.41
2023-12-17T03:29:06.238Z,103310.53
2023-12-17T03:31:32.671Z,103307.81
2023-12-17T03:33:59.260Z,103305.22
2023-12-17T03:36:26.395Z,103306.09
2023-12-17T03:38:52.899Z,103297.44
2023-12-17T03:41:23.810Z,103286.22
2023-12-17T03:43:52.534Z,103294.81
2023-12-17T03:46:19.987Z,103283.50
2023-12-17T03:48:46.753Z,103284.31
2023-12-17T03:51:13.363Z,103272.22
2023-12-17T03:53:39.860Z,103265.97
2023-12-17T03:56:13.705Z,103263.28
2023-12-17T03:58:40.774Z,103260.72
2023-12-17T04:01:08.768Z,103260.53
2023-12-17T04:03:35.796Z,103250.00
2023-12-17T04:06:03.667Z,103251.69
2023-12-17T04:08:30.648Z,103256.91
2023-12-17T04:10:57.018Z,103253.50
2023-12-17T04:13:23.363Z,103249.00
2023-12-17T04:15:49.716Z,103257.00
2023-12-17T04:18:16.277Z,103248.22
2023-12-17T04:20:42.865Z,103242.13
2023-12-17T04:23:09.330Z,103248.28
2023-12-17T04:25:35.683Z,103246.78
2023-12-17T04:28:02.097Z,103240.84
2023-12-17T04:30:28.502Z,103245.00
2023-12-17T04:32:55.054Z,103255.38
2023-12-17T04:35:21.493Z,103247.50
2023-12-17T04:37:47.840Z,103254.22
2023-12-17T04:40:15.665Z,103249.16
2023-12-17T04:42:42.114Z,103259.50
2023-12-17T04:45:09.430Z,103261.91
2023-12-17T04:47:35.890Z,103254.53
2023-12-17T04:50:02.345Z,103250.59
2023-12-17T04:52:28.686Z,103267.09
2023-12-17T04:54:55.051Z,103266.34
2023-12-17T04:57:21.808Z,103254.72
2023-12-17T04:59:48.277Z,103254.84
2023-12-17T05:02:14.769Z,103253.13
2023-12-17T05:04:41.209Z,103265.25
2023-12-17T05:07:07.593Z,103265.25
2023-12-17T05:09:34.010Z,103277.75
2023-12-17T05:12:00.416Z,103267.22
2023-12-17T05:14:26.804Z,103267.25
2023-12-17T05:16:53.163Z,103266.13
2023-12-17T05:19:19.670Z,103267.84
2023-12-17T05:21:46.231Z,103261.03
2023-12-17T05:24:12.661Z,103262.59
2023-12-17T05:26:39.068Z,103263.63
2023-12-17T05:29:05.436Z,103262.59
2023-12-17T05:31:31.894Z,103254.75
2023-12-17T05:33:58.462Z,103251.25
2023-12-17T05:36:24.931Z,103250.75
2023-12-17T05:38:51.416Z,103254.88
2023-12-17T05:41:17.907Z,103259.16
2023-12-17T05:43:44.335Z,103257.34
2023-12-17T05:46:10.714Z,103249.59
2023-12-17T05:48:37.327Z,103254.00
2023-12-17T05:51:08.229Z,103243.50
2023-12-17T05:53:41.214Z,103245.25
2023-12-17T05:56:10.599Z,103242.66
2023-12-17T05:58:36.967Z,103245.97
2023-12-17T06:01:03.899Z,103242.66
2023-12-17T06:03:31.379Z,103249.47
2023-12-17T06:05:58.053Z,103244.25
2023-12-17T06:08:24.568Z,103243.66
2023-12-17T06:10:50.951Z,103241.91
2023-12-17T06:13:17.355Z,103239.03
2023-12-17T06:15:44.065Z,103239.81
2023-12-17T06:18:10.637Z,103237.16
2023-12-17T06:20:37.095Z,103241.50
2023-12-17T06:23:03.464Z,103236.66
2023-12-17T06:25:29.847Z,103245.25
2023-12-17T06:27:56.317Z,103243.63
2023-12-17T06:30:22.843Z,103244.25
2023-12-17T06:32:49.461Z,103242.56
2023-12-17T06:35:15.931Z,103246.88
2023-12-17T06:37:42.447Z,103255.22
2023-12-17T06:40:10.495Z,103256.47
2023-12-17T06:42:36.863Z,103251.25
2023-12-17T06:45:03.632Z,103248.59
2023-12-17T06:47:30.198Z,103248.84
2023-12-17T06:49:56.690Z,103247.69
2023-12-17T06:52:23.146Z,103248.66
2023-12-17T06:54:49.533Z,103247.63
2023-12-17T06:57:16.418Z,103245.09
2023-12-17T06:59:43.343Z,103252.13
2023-12-17T07:02:09.784Z,103251.47
2023-12-17T07:04:36.256Z,103248.75
2023-12-17T07:07:02.644Z,103246.91
2023-12-17T07:09:29.109Z,103244.16
2023-12-17T07:11:55.530Z,103251.25
2023-12-17T07:14:22.699Z,103250.34
2023-12-17T07:16:49.105Z,103249.50
2023-12-17T07:19:15.568Z,103239.88
2023-12-17T07:21:42.435Z,103245.56
2023-12-17T07:24:08.918Z,103242.78
2023-12-17T07:26:35.372Z,103246.44
2023-12-17T07:29:01.758Z,103240.75
2023-12-17T07:31:28.181Z,103238.78
2023-12-17T07:33:54.732Z,103236.16
2023-12-17T07:36:21.357Z,103230.81
2023-12-17T07:38:48.454Z,103231.03
2023-12-17T07:41:14.932Z,103230.06
2023-12-17T07:43:41.439Z,103221.97
2023-12-17T07:46:08.506Z,103222.69
2023-12-17T07:48:34.975Z,103213.22
2023-12-17T07:51:03.102Z,103227.84
2023-12-17T07:53:29.930Z,103225.09
2023-12-17T07:56:00.247Z,103225.03
2023-12-17T07:58:26.721Z,103235.41
2023-12-17T08:00:53.809Z,103235.75
2023-12-17T08:03:25.085Z,103238.13
2023-12-17T08:05:52.201Z,103241.50
2023-12-17T08:08:18.627Z,103235.53
2023-12-17T08:10:45.055Z,103244.81
2023-12-17T08:13:11.882Z,103239.91
2023-12-17T08:15:38.238Z,103238.16
2023-12-17T08:18:04.755Z,103236.56
2023-12-17T08:20:31.167Z,103237.75
2023-12-17T08:22:57.578Z,103242.31
2023-12-17T08:25:23.994Z,103238.03
2023-12-17T08:27:50.398Z,103232.19
2023-12-17T08:30:18.913Z,103230.13
2023-12-17T08:32:46.846Z,103227.47
2023-12-17T08:35:13.383Z,103229.72
2023-12-17T08:37:40.022Z,103228.41
2023-12-17T08:40:06.944Z,103237.00
2023-12-17T08:42:33.370Z,103230.06
2023-12-17T08:44:59.870Z,103230.81
2023-12-17T08:47:26.403Z,103230.28
2023-12-17T08:49:52.960Z,103234.34
2023-12-17T08:52:19.395Z,103230.03
2023-12-17T08:54:45.857Z,103223.75
2023-12-17T08:57:12.242Z,103224.75
2023-12-17T08:59:43.996Z,103230.16
2023-12-17T09:02:10.420Z,103228.22
2023-12-17T09:04:36.787Z,103235.38
2023-12-17T09:07:03.237Z,103236.25
2023-12-17T09:09:29.657Z,103235.06
2023-12-17T09:11:56.097Z,103230.88
2023-12-17T09:14:22.468Z,103229.03
2023-12-17T09:16:48.855Z,103233.63
2023-12-17T09:19:15.309Z,103238.03
2023-12-17T09:21:41.741Z,103238.75
2023-12-17T09:24:08.332Z,103236.06
2023-12-17T09:26:34.829Z,103233.66
2023-12-17T09:29:02.720Z,103246.41
2023-12-17T09:31:29.782Z,103255.84
2023-12-17T09:33:56.232Z,103261.56
2023-12-17T09:36:24.302Z,103259.63
2023-12-17T09:38:50.778Z,103254.31
2023-12-17T09:41:17.211Z,103252.22
2023-12-17T09:43:44.201Z,103257.66
2023-12-17T09:46:10.871Z,103261.44
2023-12-17T09:48:38.738Z,103256.16
2023-12-17T09:51:05.695Z,103261.50
2023-12-17T09:53:35.232Z,103255.63
2023-12-17T09:56:01.763Z,103253.91
2023-12-17T09:58:28.364Z,103240.78
2023-12-17T10:00:54.983Z,103243.25
2023-12-17T10:03:22.496Z,103247.63
2023-12-17T10:05:55.277Z,103240.81
2023-12-17T10:08:23.720Z,103237.25
2023-12-17T10:10:50.281Z,103241.03
2023-12-17T10:13:21.531Z,103233.16
2023-12-17T10:15:53.229Z,103235.94
2023-12-17T10:18:20.298Z,103223.19
2023-12-17T10:20:48.015Z,103227.44
2023-12-17T10:23:15.001Z,103217.06
2023-12-17T10:25:42.312Z,103219.66
2023-12-17T10:28:10.873Z,103213.69
2023-12-17T10:30:38.492Z,103216.16
2023-12-17T10:33:12.162Z,103213.75
2023-12-17T10:35:39.088Z,103211.03
2023-12-17T10:38:09.216Z,103205.25
2023-12-17T10:40:37.878Z,103187.94
2023-12-17T10:43:05.957Z,103185.56
2023-12-17T10:45:34.016Z,103179.38
2023-12-17T10:48:01.447Z,103187.47
2023-12-17T10:50:28.374Z,103182.78
2023-12-17T10:52:55.164Z,103170.69
2023-12-17T10:55:23.261Z,103170.78
2023-12-17T10:58:10.181Z,103174.09
2023-12-17T11:00:38.618Z,103175.09
2023-12-17T11:03:07.527Z,103164.63
2023-12-17T11:05:34.206Z,103164.63
2023-12-17T11:08:00.773Z,103165.59
2023-12-17T11:10:27.560Z,103161.56
2023-12-17T11:12:55.703Z,103163.22
2023-12-17T11:15:23.729Z,103160.88
2023-12-17T11:17:55.246Z,103155.56
2023-12-17T11:20:33.045Z,103140.78
2023-12-17T11:23:01.722Z,103138.25
2023-12-17T11:25:35.885Z,103133.78
2023-12-17T11:28:03.988Z,103133.00
2023-12-17T11:30:32.652Z,103129.53
2023-12-17T11:33:00.891Z,103125.09
2023-12-17T11:35:32.018Z,103120.69
2023-12-17T11:37:58.668Z,103124.22
2023-12-17T11:40:25.445Z,103126.00
2023-12-17T11:43:03.822Z,103118.09
2023-12-17T11:45:36.158Z,103111.97
2023-12-17T11:48:10.826Z,103111.09
2023-12-17T11:50:47.633Z,103107.59
2023-12-17T11:53:15.779Z,103110.22
2023-12-17T11:55:53.456Z,103109.34
2023-12-17T11:58:22.624Z,103112.84
2023-12-17T12:01:10.712Z,103109.34
2023-12-17T12:03:39.013Z,103108.50
2023-12-17T12:06:11.832Z,103105.84
2023-12-17T12:08:43.977Z,103097.94
2023-12-17T12:11:15.179Z,103088.28
2023-12-17T12:13:46.407Z,103085.56
2023-12-17T12:16:13.770Z,103081.13
2023-12-17T12:18:40.702Z,103071.44
2023-12-17T12:21:22.866Z,103066.88
2023-12-17T12:23:51.548Z,103073.09
2023-12-17T12:26:19.852Z,103071.41
2023-12-17T12:28:51.426Z,103067.63
2023-12-17T12:31:18.032Z,103062.25
2023-12-17T12:33:59.748Z,103055.31
2023-12-17T12:36:27.373Z,103058.69
2023-12-17T12:39:02.117Z,103060.38
2023-12-17T12:41:30.021Z,103061.28
2023-12-17T12:43:57.353Z,103060.59
2023-12-17T12:46:23.902Z,103053.53
2023-12-17T12:48:57.760Z,103048.38
2023-12-17T12:51:25.925Z,103039.56
2023-12-17T12:53:52.871Z,103036.03
2023-12-17T12:56:20.435Z,103032.66
2023-12-17T12:58:48.020Z,103036.19
2023-12-17T13:01:14.607Z,103040.72
2023-12-17T13:03:41.275Z,103023.16
2023-12-17T13:06:08.186Z,103030.28
2023-12-17T13:08:34.677Z,103023.22
2023-12-17T13:11:01.131Z,103013.66
2023-12-17T13:13:27.980Z,103008.38
2023-12-17T13:15:54.345Z,103004.91
2023-12-17T13:18:20.948Z,103005.75
2023-12-17T13:20:47.521Z,103003.19
2023-12-17T13:23:13.864Z,102992.63
2023-12-17T13:25:40.301Z,102985.59
2023-12-17T13:28:07.278Z,102978.56
2023-12-17T13:30:35.248Z,102972.41
2023-12-17T13:33:05.227Z,102968.06
2023-12-17T13:35:31.916Z,102967.19
2023-12-17T13:37:58.484Z,102968.94
2023-12-17T13:40:24.870Z,102969.00
2023-12-17T13:42:51.562Z,102972.50
2023-12-17T13:45:18.491Z,102970.72
2023-12-17T13:47:45.405Z,102972.50
2023-12-17T13:50:13.469Z,102969.00
2023-12-17T13:52:40.098Z,102954.97
2023-12-17T13:55:09.130Z,102963.75
2023-12-17T13:57:37.273Z,102956.72
2023-12-17T14:00:05.924Z,102954.97
2023-12-17T14:02:32.362Z,102956.72
2023-12-17T14:04:59.029Z,102960.22
2023-12-17T14:07:26.800Z,102957.59
2023-12-17T14:09:53.257Z,102951.44
2023-12-17T14:12:19.912Z,102942.69
2023-12-17T14:14:47.847Z,102942.66
2023-12-17T14:17:14.360Z,102948.78
2023-12-17T14:19:40.811Z,102953.13
2023-12-17T14:22:07.356Z,102944.34
2023-12-17T14:24:33.795Z,102942.63
2023-12-17T14:27:00.497Z,102938.28
2023-12-17T14:29:26.943Z,102939.16
2023-12-17T14:31:54.819Z,102937.38
2023-12-17T14:34:21.449Z,102943.53
2023-12-17T14:36:48.175Z,102942.66
2023-12-17T14:39:14.925Z,102933.88
2023-12-17T14:41:41.569Z,102940.00
2023-12-17T14:44:08.092Z,102934.78
2023-12-17T14:46:34.486Z,102934.78
2023-12-17T14:49:01.161Z,102925.19
2023-12-17T14:51:28.897Z,102930.41
2023-12-17T14:53:58.773Z,102923.38
2023-12-17T14:56:26.056Z,102924.28
2023-12-17T14:58:57.467Z,102929.53
2023-12-17T15:01:34.265Z,102927.75
2023-12-17T15:04:02.662Z,102930.28
2023-12-17T15:06:29.264Z,102927.59
2023-12-17T15:08:56.766Z,102924.06
2023-12-17T15:11:23.770Z,102924.03
2023-12-17T15:13:50.169Z,102923.16
2023-12-17T15:16:17.144Z,102916.94
2023-12-17T15:18:43.715Z,102915.09
2023-12-17T15:21:15.600Z,102912.44
2023-12-17T15:23:42.072Z,102903.66
2023-12-17T15:26:08.493Z,102907.03
2023-12-17T15:28:34.930Z,102910.53
2023-12-17T15:31:01.392Z,102906.13
2023-12-17T15:33:28.142Z,102909.53
2023-12-17T15:35:54.645Z,102907.97
2023-12-17T15:38:21.853Z,102903.53
2023-12-17T15:40:48.291Z,102906.78
2023-12-17T15:43:14.641Z,102915.59
2023-12-17T15:45:41.073Z,102919.81
2023-12-17T15:48:07.605Z,102907.53
2023-12-17T15:50:34.026Z,102907.50
2023-12-17T15:53:00.380Z,102913.69
2023-12-17T15:55:27.051Z,102914.50
2023-12-17T15:57:53.540Z,102913.72
2023-12-17T16:00:20.324Z,102923.16
2023-12-17T16:02:47.313Z,102913.63
2023-12-17T16:05:14.439Z,102910.84
2023-12-17T16:07:48.960Z,102909.94
2023-12-17T16:10:15.459Z,102914.38
2023-12-17T16:12:42.351Z,102909.91
2023-12-17T16:15:10.915Z,102914.06
2023-12-17T16:17:37.721Z,102915.00
2023-12-17T16:20:04.479Z,102913.34
2023-12-17T16:22:30.941Z,102914.97
2023-12-17T16:24:57.291Z,102910.53
2023-12-17T16:27:23.711Z,102915.59
2023-12-17T16:29:50.120Z,102910.53
2023-12-17T16:32:16.710Z,102917.38
2023-12-17T16:34:43.108Z,102923.66
2023-12-17T16:37:09.506Z,102918.31
2023-12-17T16:39:35.874Z,102919.94
2023-12-17T16:42:02.288Z,102914.69
2023-12-17T16:44:29.906Z,102909.47
2023-12-17T16:46:56.241Z,102918.97
2023-12-17T16:49:22.666Z,102918.81
2023-12-17T16:51:49.148Z,102923.19
2023-12-17T16:54:15.588Z,102919.72
2023-12-17T16:56:42.815Z,102928.34
2023-12-17T16:59:09.186Z,102928.31
2023-12-17T17:01:35.607Z,102929.00
2023-12-17T17:04:02.078Z,102929.94
2023-12-17T17:06:28.520Z,102933.19
2023-12-17T17:08:54.889Z,102924.47
2023-12-17T17:11:22.286Z,102925.22
2023-12-17T17:13:48.658Z,102927.16
2023-12-17T17:16:15.131Z,102935.72
2023-12-17T17:18:41.682Z,102939.84
2023-12-17T17:21:08.839Z,102944.88
2023-12-17T17:23:35.183Z,102927.84
2023-12-17T17:26:01.612Z,102934.75
2023-12-17T17:28:28.173Z,102938.22
2023-12-17T17:30:54.805Z,102927.78
2023-12-17T17:33:22.961Z,102944.28
2023-12-17T17:35:50.069Z,102934.34
2023-12-17T17:38:16.406Z,102938.09
2023-12-17T17:40:42.818Z,102933.78
2023-12-17T17:43:09.350Z,102935.41
2023-12-17T17:45:35.845Z,102935.41
2023-12-17T17:48:02.405Z,102930.03
2023-12-17T17:50:28.895Z,102937.06
2023-12-17T17:52:55.286Z,102927.44
2023-12-17T17:55:22.081Z,102926.47
2023-12-17T17:57:48.438Z,102932.34
2023-12-17T18:00:17.148Z,102927.47
2023-12-17T18:02:43.704Z,102928.06
2023-12-17T18:05:10.322Z,102925.38
2023-12-17T18:07:36.751Z,102915.91
2023-12-17T18:10:03.316Z,102920.25
2023-12-17T18:12:29.726Z,102913.22
2023-12-17T18:14:56.221Z,102922.88
2023-12-17T18:17:22.624Z,102915.97
2023-12-17T18:19:49.054Z,102922.69
2023-12-17T18:22:15.484Z,102917.47
2023-12-17T18:24:41.864Z,102913.25
2023-12-17T18:27:09.168Z,102909.41
2023-12-17T18:29:35.845Z,102913.69
2023-12-17T18:32:02.431Z,102910.44
2023-12-17T18:34:29.372Z,102913.66
2023-12-17T18:36:56.169Z,102918.88
2023-12-17T18:39:22.694Z,102919.63
2023-12-17T18:41:50.315Z,102927.47
2023-12-17T18:44:16.738Z,102914.63
2023-12-17T18:46:43.232Z,102924.28
2023-12-17T18:49:09.760Z,102932.09
2023-12-17T18:51:41.923Z,102934.44
2023-12-17T18:54:08.873Z,102934.31
2023-12-17T18:56:35.439Z,102938.09
2023-12-17T18:59:01.793Z,102938.75
2023-12-17T19:01:28.419Z,102939.50
2023-12-17T19:03:54.961Z,102938.63
2023-12-17T19:06:21.654Z,102938.53
2023-12-17T19:08:48.133Z,102934.22
2023-12-17T19:11:14.834Z,102933.38
2023-12-17T19:13:41.200Z,102926.41
2023-12-17T19:16:08.989Z,102931.69
2023-12-17T19:18:37.599Z,102926.34
2023-12-17T19:21:04.316Z,102927.22
2023-12-17T19:23:31.368Z,102930.84
2023-12-17T19:25:58.765Z,102928.78
2023-12-17T19:28:25.131Z,102939.16
2023-12-17T19:30:52.306Z,102936.56
2023-12-17T19:33:20.041Z,102939.22
2023-12-17T19:35:46.428Z,102945.34
2023-12-17T19:38:13.526Z,102934.13
2023-12-17T19:40:39.917Z,102925.44
2023-12-17T19:43:06.305Z,102928.91
2023-12-17T19:45:32.740Z,102927.06
2023-12-17T19:47:59.621Z,102926.88
2023-12-17T19:50:26.164Z,102924.13
2023-12-17T19:52:52.605Z,102920.69
2023-12-17T19:55:18.988Z,102925.84
2023-12-17T19:57:46.009Z,102932.75
2023-12-17T20:00:12.780Z,102926.34
2023-12-17T20:02:41.583Z,102929.88
2023-12-17T20:05:08.474Z,102926.56
2023-12-17T20:07:35.107Z,102932.66
2023-12-17T20:10:01.879Z,102928.06
2023-12-17T20:12:28.336Z,102928.19
2023-12-17T20:14:54.714Z,102917.28
2023-12-17T20:17:21.605Z,102911.41
2023-12-17T20:19:48.086Z,102919.50
2023-12-17T20:22:14.522Z,102918.53
2023-12-17T20:24:40.955Z,102916.81
2023-12-17T20:27:07.384Z,102911.22
2023-12-17T20:29:33.806Z,102906.34
2023-12-17T20:32:00.195Z,102902.69
2023-12-17T20:34:28.294Z,102901.25
2023-12-17T20:36:54.836Z,102893.25
2023-12-17T20:39:21.309Z,102892.22
2023-12-17T20:41:47.909Z,102883.38
2023-12-17T20:44:14.533Z,102883.31
2023-12-17T20:46:40.949Z,102889.38
2023-12-17T20:49:08.302Z,102889.63
2023-12-17T20:51:34.915Z,102885.75
2023-12-17T20:54:01.349Z,102889.22
2023-12-17T20:56:27.769Z,102883.09
2023-12-17T20:58:56.675Z,102887.69
2023-12-17T21:01:23.089Z,102889.28
2023-12-17T21:03:50.005Z,102902.16
2023-12-17T21:06:23.004Z,102890.25
2023-12-17T21:08:49.572Z,102890.13
2023-12-17T21:11:16.711Z,102903.81
2023-12-17T21:13:43.087Z,102891.75
2023-12-17T21:16:09.435Z,102892.63
2023-12-17T21:18:36.100Z,102891.16
2023-12-17T21:21:02.561Z,102882.34
2023-12-17T21:23:29.142Z,102878.00
2023-12-17T21:25:55.573Z,102883.78
2023-12-17T21:28:22.252Z,102871.72
2023-12-17T21:30:50.425Z,102875.63
2023-12-17T21:33:16.948Z,102865.41
2023-12-17T21:35:43.512Z,102866.16
2023-12-17T21:38:10.346Z,102865.41
2023-12-17T21:40:36.846Z,102859.34
2023-12-17T21:43:03.342Z,102860.06
2023-12-17T21:45:29.878Z,102853.06
2023-12-17T21:47:56.534Z,102849.50
2023-12-17T21:50:23.021Z,102853.97
2023-12-17T21:52:49.533Z,102845.22
2023-12-17T21:55:16.056Z,102836.53
2023-12-17T21:57:43.947Z,102834.72
2023-12-17T22:00:18.633Z,102834.31
2023-12-17T22:02:46.078Z,102836.63
2023-12-17T22:05:12.757Z,102843.56
2023-12-17T22:07:39.292Z,102826.31
2023-12-17T22:10:07.314Z,102838.34
2023-12-17T22:12:33.802Z,102829.22
2023-12-17T22:15:00.338Z,102832.44
2023-12-17T22:17:26.877Z,102813.28
2023-12-17T22:19:53.413Z,102832.47
2023-12-17T22:22:20.263Z,102824.53
2023-12-17T22:24:46.638Z,102815.72
2023-12-17T22:27:13.072Z,102814.16
2023-12-17T22:29:39.426Z,102820.94
2023-12-17T22:32:06.006Z,102833.13
2023-12-17T22:34:33.954Z,102838.97
2023-12-17T22:37:00.590Z,102851.13
2023-12-17T22:39:26.970Z,102847.44
2023-12-17T22:41:53.378Z,102853.59
2023-12-17T22:44:20.797Z,102873.06
2023-12-17T22:46:47.559Z,102863.06
2023-12-17T22:49:14.027Z,102858.09
2023-12-17T22:51:40.477Z,102858.78
2023-12-17T22:54:07.117Z,102847.16
2023-12-17T22:56:37.648Z,102852.41
2023-12-17T22:59:04.871Z,102848.25
2023-12-17T23:01:31.965Z,102838.00
2023-12-17T23:03:58.416Z,102832.00
2023-12-17T23:06:26.354Z,102822.47
2023-12-17T23:08:52.734Z,102826.66
2023-12-17T23:11:22.057Z,102829.44
2023-12-17T23:13:48.554Z,102828.50
2023-12-17T23:16:14.913Z,102819.47
2023-12-17T23:18:41.377Z,102829.03
2023-12-17T23:21:07.846Z,102835.00
2023-12-17T23:23:34.596Z,102835.91
2023-12-17T23:26:00.955Z,102842.72
2023-12-17T23:28:27.343Z,102832.16
2023-12-17T23:30:53.817Z,102834.81
2023-12-17T23:33:20.757Z,102829.88
2023-12-17T23:35:47.272Z,102817.78
2023-12-17T23:38:13.841Z,102821.28
2023-12-17T23:40:40.192Z,102834.31
2023-12-17T23:43:06.801Z,102834.31
2023-12-17T23:45:33.327Z,102833.00
2023-12-17T23:47:59.841Z,102821.97
2023-12-17T23:50:26.297Z,102814.75
2023-12-17T23:52:52.703Z,102811.31
2023-12-17T23:55:19.076Z,102801.50
2023-12-17T23:57:46.059Z,102794.69
